Metar z połowy godziny Komunikat METAR ze strony awiacja.imgw.pl Metar Mil EPCE METAR EPCE 230730Z 31013KT 280V340 9999 FEW044 07/M04 Q1017 RMK 065 048 2/2=